Time;durP1;ratioP1;P1;durP2;ratioP2;P2;SDS_P1;SDS_P2;PMS_P1;PMS_P2;Temp;Humidity;BMP_temperature;BMP_pressure;BME280_temperature;BME280_humidity;BME280_pressure;Samples;Min_cycle;Max_cycle;Signal;HPM_P1;HPM_P2
2023/12/12 00:00:28;;;;;;;0.80;0.80;;;;;;;5.00;88.51;98007.31;5034735;28;20579;-77
2023/12/12 00:02:53;;;;;;;0.80;0.80;;;;;;;5.14;88.68;98009.63;5048525;28;20037;-77
2023/12/12 00:05:19;;;;;;;0.80;0.80;;;;;;;5.05;88.87;98008.38;5035290;28;20042;-78
2023/12/12 00:07:44;;;;;;;0.80;0.80;;;;;;;5.05;89.03;98016.31;5034002;28;20033;-77
2023/12/12 00:10:10;;;;;;;0.80;0.80;;;;;;;5.10;88.35;98020.03;5034661;28;20065;-78
2023/12/12 00:12:35;;;;;;;0.90;0.90;;;;;;;5.19;87.98;98023.03;5032210;28;20152;-78
2023/12/12 00:15:01;;;;;;;0.73;0.73;;;;;;;5.11;87.54;98027.13;5033494;28;20431;-78
2023/12/12 00:17:29;;;;;;;0.80;0.80;;;;;;;5.12;87.70;98021.88;5034100;28;20045;-78
2023/12/12 00:19:54;;;;;;;0.80;0.80;;;;;;;5.14;87.78;98019.31;5035280;28;20469;-78
2023/12/12 00:22:20;;;;;;;0.90;0.90;;;;;;;5.19;88.05;98014.22;5048914;28;20447;-78
2023/12/12 00:24:46;;;;;;;0.80;0.80;;;;;;;5.20;88.08;98019.53;5033891;28;20033;-78
2023/12/12 00:27:11;;;;;;;0.80;0.80;;;;;;;5.32;88.02;98019.13;5031342;28;20091;-78
2023/12/12 00:29:38;;;;;;;0.80;0.80;;;;;;;5.31;87.87;98012.91;5038752;28;20116;-78
2023/12/12 00:32:04;;;;;;;0.88;0.88;;;;;;;5.30;87.46;98016.41;5029928;28;20033;-78
2023/12/12 00:34:30;;;;;;;0.80;0.80;;;;;;;5.33;88.07;98021.81;5034072;28;20037;-78
2023/12/12 00:36:55;;;;;;;0.70;0.70;;;;;;;5.37;87.59;98020.22;5035894;28;20045;-77
2023/12/12 00:39:21;;;;;;;0.77;0.77;;;;;;;5.42;87.39;98023.03;5030040;28;20037;-76
2023/12/12 00:41:47;;;;;;;0.80;0.80;;;;;;;5.42;87.59;98025.66;5034412;28;20118;-77
2023/12/12 00:44:13;;;;;;;0.90;0.90;;;;;;;5.47;87.74;98025.00;5031637;28;20612;-78
2023/12/12 00:46:38;;;;;;;0.80;0.80;;;;;;;5.50;87.22;98024.19;5031111;28;20041;-78
2023/12/12 00:49:04;;;;;;;0.80;0.80;;;;;;;5.48;87.30;98026.78;5028594;28;20072;-78
2023/12/12 00:51:29;;;;;;;0.88;0.88;;;;;;;5.53;87.68;98027.84;5029268;28;20045;-78
2023/12/12 00:53:55;;;;;;;0.70;0.70;;;;;;;5.60;87.21;98029.88;5032989;28;20151;-78
2023/12/12 00:56:20;;;;;;;0.80;0.80;;;;;;;5.66;87.19;98032.78;5030478;28;20033;-78
2023/12/12 00:58:46;;;;;;;0.80;0.80;;;;;;;5.75;86.46;98026.00;5029741;28;20044;-78
2023/12/12 01:01:13;;;;;;;0.80;0.80;;;;;;;5.80;86.63;98027.09;5032219;28;20037;-78
2023/12/12 01:03:39;;;;;;;;;;;;;;;5.85;86.01;98029.06;5033019;28;20102;-78
2023/12/12 01:06:05;;;;;;;0.70;0.70;;;;;;;5.93;85.49;98031.09;5034039;28;19921;-78
2023/12/12 01:08:30;;;;;;;0.70;0.70;;;;;;;5.94;85.39;98023.22;5032395;28;20518;-78
2023/12/12 01:10:55;;;;;;;0.70;0.70;;;;;;;5.83;85.80;98022.78;5032572;28;20636;-78
2023/12/12 01:13:21;;;;;;;0.80;0.80;;;;;;;5.85;85.58;98026.41;5029481;28;20448;-78
2023/12/12 01:15:46;;;;;;;0.70;0.70;;;;;;;5.93;85.94;98026.69;5035012;28;20125;-78
2023/12/12 01:18:12;;;;;;;0.70;0.70;;;;;;;5.90;85.88;98022.19;5029702;28;20041;-78
2023/12/12 01:20:37;;;;;;;0.70;0.70;;;;;;;5.93;85.89;98026.69;5032441;28;20052;-78
2023/12/12 01:23:03;;;;;;;0.70;0.70;;;;;;;5.98;85.59;98019.81;5034524;28;20099;-79
2023/12/12 01:25:29;;;;;;;0.70;0.70;;;;;;;6.00;85.91;98028.72;5030066;28;20045;-78
2023/12/12 01:27:55;;;;;;;0.80;0.80;;;;;;;6.16;85.40;98019.56;5030733;28;20043;-78
2023/12/12 01:30:20;;;;;;;0.70;0.70;;;;;;;6.07;85.36;98030.72;5032293;28;20046;-78
2023/12/12 01:32:45;;;;;;;0.80;0.80;;;;;;;6.05;85.41;98026.25;5033577;28;20029;-79
2023/12/12 01:35:11;;;;;;;0.70;0.70;;;;;;;6.07;85.98;98017.50;5031548;28;20044;-78
2023/12/12 01:37:36;;;;;;;0.70;0.70;;;;;;;5.96;86.27;98021.53;5037677;28;20438;-78
2023/12/12 01:40:02;;;;;;;0.80;0.80;;;;;;;5.88;86.60;98029.13;5030519;28;20491;-78
2023/12/12 01:42:27;;;;;;;0.70;0.70;;;;;;;5.90;86.88;98019.53;5035414;28;20048;-78
2023/12/12 01:44:53;;;;;;;0.77;0.77;;;;;;;5.87;87.00;98024.69;5034786;28;20099;-78
2023/12/12 01:47:18;;;;;;;0.73;0.73;;;;;;;6.03;86.68;98023.53;5029542;28;20045;-78
2023/12/12 01:49:44;;;;;;;0.70;0.70;;;;;;;5.95;86.71;98016.19;5036048;28;20396;-78
2023/12/12 01:52:11;;;;;;;0.70;0.70;;;;;;;5.91;86.53;98012.47;5030625;28;20033;-78
2023/12/12 01:54:39;;;;;;;0.77;0.77;;;;;;;6.00;86.46;98014.59;5028214;28;20041;-78
2023/12/12 01:57:05;;;;;;;0.70;0.70;;;;;;;5.95;86.81;97993.25;5031592;28;20431;-78
2023/12/12 01:59:32;;;;;;;0.70;0.70;;;;;;;6.03;86.33;97993.50;5036353;28;20048;-79
2023/12/12 02:01:57;;;;;;;0.80;0.80;;;;;;;6.01;86.57;98008.44;5028809;28;20044;-79
2023/12/12 02:04:23;;;;;;;0.77;0.77;;;;;;;6.00;86.78;97996.06;5032823;28;20041;-79
2023/12/12 02:06:51;;;;;;;0.80;0.80;;;;;;;6.26;86.37;98002.25;5031253;28;20125;-79
2023/12/12 02:09:17;;;;;;;0.70;0.70;;;;;;;6.28;85.64;98006.75;5029176;28;20372;-79
2023/12/12 02:11:42;;;;;;;0.70;0.70;;;;;;;6.24;85.77;98003.94;5032501;28;20474;-78
2023/12/12 02:14:11;;;;;;;0.80;0.80;;;;;;;6.22;86.08;98005.63;5029794;28;20434;-79
2023/12/12 02:16:36;;;;;;;0.80;0.80;;;;;;;6.17;85.96;97993.13;5032777;28;20041;-79
2023/12/12 02:19:01;;;;;;;0.70;0.70;;;;;;;6.17;86.31;97985.19;5031194;28;20073;-79
2023/12/12 02:21:27;;;;;;;0.80;0.80;;;;;;;6.19;86.14;97987.91;5030488;28;20049;-78
2023/12/12 02:23:52;;;;;;;0.70;0.70;;;;;;;6.31;86.20;97982.09;5037311;28;20126;-79
2023/12/12 02:26:18;;;;;;;0.80;0.80;;;;;;;6.44;85.44;97981.69;5030976;28;20399;-77
2023/12/12 02:28:44;;;;;;;0.70;0.70;;;;;;;6.38;85.31;97994.72;5046724;28;20513;-78
2023/12/12 02:31:09;;;;;;;0.70;0.70;;;;;;;6.34;85.54;97987.53;5029965;28;20191;-77
2023/12/12 02:33:34;;;;;;;0.70;0.70;;;;;;;6.35;85.76;97974.31;5027742;28;20029;-78
2023/12/12 02:36:00;;;;;;;0.70;0.70;;;;;;;6.38;85.39;97973.53;5032347;28;20049;-78
2023/12/12 02:38:25;;;;;;;0.70;0.70;;;;;;;6.39;85.93;97965.63;5032318;28;20124;-78
2023/12/12 02:40:51;;;;;;;0.60;0.60;;;;;;;6.33;85.81;97960.13;5031536;28;20445;-78
2023/12/12 02:43:16;;;;;;;0.68;0.68;;;;;;;6.53;85.28;97954.59;5040839;28;21799;-78
2023/12/12 02:45:42;;;;;;;0.70;0.70;;;;;;;6.49;85.20;97956.22;5034259;28;20041;-78
2023/12/12 02:48:07;;;;;;;0.70;0.70;;;;;;;6.41;85.69;97957.72;5024309;28;20129;-79
2023/12/12 02:50:33;;;;;;;0.70;0.70;;;;;;;6.40;85.56;97970.06;5034814;28;20506;-79
2023/12/12 02:52:58;;;;;;;0.70;0.70;;;;;;;6.38;85.51;97971.78;5031976;28;20103;-78
2023/12/12 02:55:24;;;;;;;0.77;0.77;;;;;;;6.30;85.84;97975.91;5035763;28;20131;-78
2023/12/12 02:57:49;;;;;;;0.70;0.70;;;;;;;6.36;86.15;97967.25;5035061;28;20091;-78
2023/12/12 03:00:15;;;;;;;0.70;0.70;;;;;;;6.36;86.09;97969.91;5035490;28;20045;-78
2023/12/12 03:02:40;;;;;;;0.70;0.70;;;;;;;6.32;85.81;97973.31;5033385;28;20147;-77
2023/12/12 03:05:06;;;;;;;0.70;0.70;;;;;;;6.09;86.93;97975.19;5034512;28;20155;-78
2023/12/12 03:07:31;;;;;;;0.70;0.70;;;;;;;5.99;87.22;97970.41;5035743;28;20041;-78
2023/12/12 03:09:57;;;;;;;0.70;0.70;;;;;;;5.78;87.84;97974.06;5033918;28;20037;-78
2023/12/12 03:12:22;;;;;;;0.70;0.70;;;;;;;5.73;88.74;97959.78;5034983;28;20076;-78
2023/12/12 03:14:47;;;;;;;0.70;0.70;;;;;;;5.60;89.13;97969.00;5038954;28;20246;-78
2023/12/12 03:17:13;;;;;;;0.70;0.70;;;;;;;5.53;89.54;97960.81;5034575;28;20046;-78
2023/12/12 03:19:38;;;;;;;0.77;0.77;;;;;;;5.45;89.68;97963.19;5035790;28;20045;-78
2023/12/12 03:22:04;;;;;;;0.80;0.80;;;;;;;5.39;89.97;97970.88;5034460;28;20116;-78
2023/12/12 03:24:29;;;;;;;0.70;0.70;;;;;;;5.38;90.03;97972.63;5036595;28;20724;-79
2023/12/12 03:26:55;;;;;;;0.70;0.70;;;;;;;5.26;90.17;97956.31;5033476;28;20117;-79
2023/12/12 03:29:20;;;;;;;0.73;0.73;;;;;;;5.21;90.23;97968.44;5039058;28;20120;-78
2023/12/12 03:31:45;;;;;;;0.75;0.75;;;;;;;5.23;90.54;97966.78;5031603;28;20038;-78
2023/12/12 03:34:11;;;;;;;0.70;0.70;;;;;;;5.12;90.72;97965.47;5035745;28;20468;-79
2023/12/12 03:36:41;;;;;;;0.70;0.70;;;;;;;5.05;91.14;97961.69;5033322;28;20113;-78
2023/12/12 03:39:07;;;;;;;0.70;0.70;;;;;;;4.99;91.24;97960.56;5035577;28;20539;-78
2023/12/12 03:41:32;;;;;;;0.80;0.80;;;;;;;4.92;91.17;97954.13;5039862;28;20090;-78
2023/12/12 03:43:58;;;;;;;0.77;0.77;;;;;;;4.79;91.78;97943.91;5034196;28;20037;-78
2023/12/12 03:46:23;;;;;;;0.80;0.80;;;;;;;4.68;91.42;97943.50;5036001;28;20612;-78
2023/12/12 03:48:49;;;;;;;0.73;0.73;;;;;;;4.53;91.50;97945.53;5034829;28;20033;-78
2023/12/12 03:51:14;;;;;;;0.90;0.90;;;;;;;4.36;92.23;97953.72;5033010;28;20712;-79
2023/12/12 03:53:40;;;;;;;0.80;0.80;;;;;;;4.30;92.89;97956.06;5033589;28;20145;-78
2023/12/12 03:56:06;;;;;;;0.80;0.80;;;;;;;4.22;92.62;97954.88;5037837;28;20194;-78
2023/12/12 03:58:32;;;;;;;0.80;0.80;;;;;;;4.14;92.49;97963.31;5033302;28;20094;-77
2023/12/12 04:00:57;;;;;;;0.80;0.80;;;;;;;4.11;93.67;97943.84;5034820;28;20037;-78
2023/12/12 04:03:23;;;;;;;0.80;0.80;;;;;;;4.17;93.42;97950.22;5033256;28;20043;-78
2023/12/12 04:05:48;;;;;;;0.73;0.73;;;;;;;4.22;92.85;97952.25;5035760;28;20049;-78
2023/12/12 04:08:14;;;;;;;0.80;0.80;;;;;;;4.16;93.25;97944.03;5030642;28;20508;-78
2023/12/12 04:10:39;;;;;;;0.80;0.80;;;;;;;4.09;93.11;97934.97;5036593;28;20038;-78
2023/12/12 04:13:05;;;;;;;0.80;0.80;;;;;;;4.15;92.92;97936.97;5039844;28;20037;-77
2023/12/12 04:15:30;;;;;;;0.80;0.80;;;;;;;4.17;93.09;97937.94;5032321;28;20041;-78
2023/12/12 04:17:56;;;;;;;0.70;0.70;;;;;;;4.25;93.39;97928.59;5015658;28;20032;-78
2023/12/12 04:20:21;;;;;;;0.80;0.80;;;;;;;4.32;93.12;97928.00;5032694;28;20053;-78
2023/12/12 04:22:46;;;;;;;0.80;0.80;;;;;;;4.40;93.00;97930.94;5032091;28;20124;-78
2023/12/12 04:25:13;;;;;;;0.80;0.80;;;;;;;4.41;93.03;97929.19;5031649;28;20041;-78
2023/12/12 04:27:38;;;;;;;0.82;0.82;;;;;;;4.33;92.81;97921.88;5032866;28;20045;-78
2023/12/12 04:30:07;;;;;;;0.80;0.80;;;;;;;4.17;92.81;97908.91;5028665;28;20041;-78
2023/12/12 04:32:33;;;;;;;0.80;0.80;;;;;;;4.10;92.64;97912.13;5034872;28;20043;-78
2023/12/12 04:34:59;;;;;;;0.80;0.80;;;;;;;4.14;92.82;97915.81;5034224;28;20131;-78
2023/12/12 04:37:25;;;;;;;0.90;0.90;;;;;;;4.06;92.74;97929.56;5033338;28;20037;-78
2023/12/12 04:39:50;;;;;;;0.80;0.80;;;;;;;4.23;92.94;97924.09;5032967;28;20111;-78
2023/12/12 04:42:15;;;;;;;0.80;0.80;;;;;;;4.11;92.86;97917.47;5032320;28;20399;-77
2023/12/12 04:44:44;;;;;;;0.80;0.80;;;;;;;4.10;93.45;97910.38;5030478;28;20052;-77
2023/12/12 04:47:10;;;;;;;0.90;0.90;;;;;;;4.14;93.43;97910.53;5028700;28;20487;-77
2023/12/12 04:49:36;;;;;;;0.80;0.80;;;;;;;4.02;93.23;97919.72;5031941;28;20029;-77
2023/12/12 04:52:02;;;;;;;0.80;0.80;;;;;;;4.03;93.68;97918.91;5031474;28;20041;-78
2023/12/12 04:54:27;;;;;;;0.80;0.80;;;;;;;3.97;93.61;97917.72;5031378;28;20041;-78
2023/12/12 04:56:53;;;;;;;0.80;0.80;;;;;;;3.96;93.83;97908.00;5041228;28;20055;-78
2023/12/12 04:59:19;;;;;;;0.80;0.80;;;;;;;3.96;93.62;97906.28;5037943;28;20046;-78
2023/12/12 05:01:44;;;;;;;0.80;0.80;;;;;;;3.97;93.90;97907.16;5037228;28;20041;-78
2023/12/12 05:04:10;;;;;;;0.80;0.80;;;;;;;3.93;93.82;97906.16;5031942;28;20040;-79
2023/12/12 05:06:35;;;;;;;0.80;0.80;;;;;;;3.94;93.79;97907.06;5036372;28;20707;-79
2023/12/12 05:09:01;;;;;;;0.80;0.80;;;;;;;4.10;93.53;97898.94;5034268;28;20131;-78
2023/12/12 05:11:26;;;;;;;0.80;0.80;;;;;;;3.92;93.37;97898.16;5036698;28;20053;-78
2023/12/12 05:13:52;;;;;;;0.80;0.80;;;;;;;3.63;93.40;97895.19;5030716;28;20060;-78
2023/12/12 05:16:18;;;;;;;0.80;0.80;;;;;;;3.35;93.38;97903.66;5031550;28;20082;-78
2023/12/12 05:18:44;;;;;;;0.80;0.80;;;;;;;3.25;93.27;97896.19;5029699;28;20043;-79
2023/12/12 05:21:11;;;;;;;0.80;0.80;;;;;;;3.24;93.53;97900.56;5033278;28;20045;-78
2023/12/12 05:23:36;;;;;;;0.80;0.80;;;;;;;3.19;93.51;97907.38;5033346;28;20044;-79
2023/12/12 05:26:02;;;;;;;0.85;0.85;;;;;;;3.20;93.58;97911.78;5033139;28;20029;-79
2023/12/12 05:28:27;;;;;;;0.80;0.80;;;;;;;3.07;93.91;97910.38;5030684;28;20033;-79
2023/12/12 05:30:53;;;;;;;0.80;0.80;;;;;;;3.03;94.98;97904.88;5030146;28;20065;-79
2023/12/12 05:33:20;;;;;;;0.90;0.90;;;;;;;2.91;94.93;97906.97;5027138;28;20041;-79
2023/12/12 05:35:48;;;;;;;0.90;0.90;;;;;;;3.03;95.99;97910.16;5044883;28;20064;-79
2023/12/12 05:38:13;;;;;;;0.90;0.90;;;;;;;2.63;95.24;97926.75;5033727;28;20030;-79
2023/12/12 05:40:39;;;;;;;0.90;0.90;;;;;;;2.63;95.64;97916.22;5037493;28;20379;-79
2023/12/12 05:43:04;;;;;;;0.93;0.93;;;;;;;2.60;95.49;97913.47;5033636;28;20048;-79
2023/12/12 05:45:30;;;;;;;0.90;0.90;;;;;;;2.46;94.83;97915.44;5030674;28;20033;-79
2023/12/12 05:47:55;;;;;;;0.90;0.90;;;;;;;2.42;95.92;97910.84;5034994;28;20134;-79
2023/12/12 05:50:21;;;;;;;0.90;0.90;;;;;;;2.36;96.23;97900.03;5030801;28;20041;-79
2023/12/12 05:52:50;;;;;;;0.95;0.95;;;;;;;2.29;95.61;97900.56;5038146;28;20032;-78
2023/12/12 05:55:16;;;;;;;0.90;0.90;;;;;;;2.24;95.15;97900.34;5028989;28;20044;-78
2023/12/12 05:57:41;;;;;;;0.90;0.90;;;;;;;2.38;95.69;97898.38;5031395;28;20037;-78
2023/12/12 06:00:07;;;;;;;0.93;0.93;;;;;;;2.24;95.59;97897.72;5034315;28;20045;-78
2023/12/12 06:02:39;;;;;;;0.90;0.90;;;;;;;2.21;96.02;97894.94;5030553;28;20056;-78
2023/12/12 06:05:07;;;;;;;1.00;1.00;;;;;;;2.08;95.72;97896.91;5031669;28;20045;-77
2023/12/12 06:07:33;;;;;;;1.02;1.02;;;;;;;2.00;95.83;97888.63;5039670;28;20148;-78
2023/12/12 06:09:59;;;;;;;0.93;0.93;;;;;;;1.91;95.91;97898.69;5035511;28;20361;-78
2023/12/12 06:12:26;;;;;;;0.90;0.90;;;;;;;1.91;95.58;97898.69;5029411;28;20037;-79
2023/12/12 06:14:52;;;;;;;0.93;0.93;;;;;;;1.78;95.90;97900.75;5032493;28;20507;-78
2023/12/12 06:17:17;;;;;;;0.93;0.93;;;;;;;1.73;95.81;97915.41;5026331;28;20040;-78
2023/12/12 06:19:43;;;;;;;1.00;1.00;;;;;;;1.73;95.86;97925.03;5028630;28;20048;-79
2023/12/12 06:22:08;;;;;;;0.90;0.90;;;;;;;1.92;96.60;97921.56;5029463;28;20037;-80
2023/12/12 06:24:34;;;;;;;0.90;0.90;;;;;;;1.96;96.53;97923.50;5034415;28;20042;-79
2023/12/12 06:27:00;;;;;;;0.90;0.90;;;;;;;2.19;96.52;97928.16;5030573;28;20111;-80
2023/12/12 06:29:25;;;;;;;1.00;1.00;;;;;;;2.40;96.18;97919.53;5030997;28;20095;-79
2023/12/12 06:31:50;;;;;;;1.00;1.00;;;;;;;2.55;96.63;97912.34;5028422;28;20038;-80
2023/12/12 06:34:16;;;;;;;0.90;0.90;;;;;;;2.70;95.78;97909.53;5031105;28;20045;-80
2023/12/12 06:36:41;;;;;;;1.00;1.00;;;;;;;2.66;95.57;97907.56;5033160;28;20077;-80
2023/12/12 06:39:09;;;;;;;0.90;0.90;;;;;;;2.53;95.40;97913.97;5030866;28;20478;-79
2023/12/12 06:41:38;;;;;;;0.95;0.95;;;;;;;2.50;95.25;97905.97;5031272;28;20116;-81
2023/12/12 06:44:04;;;;;;;0.90;0.90;;;;;;;2.43;95.49;97909.13;5033794;28;20515;-80
2023/12/12 06:46:29;;;;;;;0.82;0.82;;;;;;;2.54;95.11;97903.53;5048311;28;20060;-80
2023/12/12 06:48:55;;;;;;;0.90;0.90;;;;;;;2.47;95.55;97890.00;5034988;28;20048;-80
2023/12/12 06:51:21;;;;;;;1.00;1.00;;;;;;;2.57;95.78;97886.97;5034915;28;20032;-80
2023/12/12 06:53:46;;;;;;;0.95;0.95;;;;;;;2.70;95.69;97880.56;5031346;28;20487;-79
2023/12/12 06:56:12;;;;;;;0.90;0.90;;;;;;;2.77;95.47;97874.72;5031782;28;20124;-80
2023/12/12 06:58:38;;;;;;;0.90;0.90;;;;;;;2.82;95.37;97866.19;5031435;28;20430;-80
2023/12/12 07:01:03;;;;;;;0.85;0.85;;;;;;;3.02;95.24;97859.19;5031291;28;20128;-80
2023/12/12 07:03:29;;;;;;;0.90;0.90;;;;;;;3.16;94.56;97858.88;5028298;28;20051;-80
2023/12/12 07:05:54;;;;;;;0.93;0.93;;;;;;;3.31;95.14;97849.94;5030058;28;20061;-80
2023/12/12 07:08:21;;;;;;;0.90;0.90;;;;;;;3.38;94.53;97851.06;5037092;28;20033;-80
2023/12/12 07:10:46;;;;;;;0.90;0.90;;;;;;;3.33;94.75;97845.59;5033942;28;20487;-80
2023/12/12 07:13:12;;;;;;;0.90;0.90;;;;;;;3.37;94.70;97848.38;5036017;28;20048;-80
2023/12/12 07:15:38;;;;;;;0.90;0.90;;;;;;;3.46;94.58;97852.31;5032710;28;20396;-80
2023/12/12 07:18:10;;;;;;;0.88;0.88;;;;;;;3.43;94.49;97854.81;5031579;28;20033;-80
2023/12/12 07:20:38;;;;;;;0.90;0.90;;;;;;;3.47;94.55;97856.75;5031729;28;20045;-80
2023/12/12 07:23:04;;;;;;;0.80;0.80;;;;;;;3.46;94.15;97864.59;5032469;28;20029;-80
2023/12/12 07:25:30;;;;;;;0.80;0.80;;;;;;;3.54;94.39;97857.88;5031213;28;20055;-80
2023/12/12 07:27:56;;;;;;;0.82;0.82;;;;;;;3.45;93.71;97866.34;5033205;28;20043;-80
2023/12/12 07:30:21;;;;;;;0.80;0.80;;;;;;;3.51;93.63;97861.31;5036588;28;20407;-79
2023/12/12 07:32:46;;;;;;;0.82;0.82;;;;;;;3.58;94.04;97875.66;5034127;28;20037;-80
2023/12/12 07:35:12;;;;;;;0.80;0.80;;;;;;;3.61;94.16;97873.16;5038066;28;20037;-80
2023/12/12 07:37:37;;;;;;;0.80;0.80;;;;;;;3.62;94.05;97871.41;5039105;28;20099;-80
2023/12/12 07:40:04;;;;;;;0.90;0.90;;;;;;;3.51;93.75;97870.97;5034870;28;20060;-79
2023/12/12 07:42:30;;;;;;;0.90;0.90;;;;;;;3.45;93.42;97860.13;5032991;28;20140;-79
2023/12/12 07:44:56;;;;;;;0.90;0.90;;;;;;;3.44;93.63;97868.88;5045279;28;20123;-80
2023/12/12 07:47:22;;;;;;;0.90;0.90;;;;;;;3.58;93.62;97859.81;5034322;28;20037;-80
2023/12/12 07:49:47;;;;;;;0.80;0.80;;;;;;;3.50;93.47;97858.63;5041741;28;20045;-80
2023/12/12 07:52:13;;;;;;;0.90;0.90;;;;;;;3.65;93.86;97858.38;5034293;28;20029;-79
2023/12/12 07:54:38;;;;;;;0.80;0.80;;;;;;;3.80;93.21;97845.81;5031575;28;20301;-80
2023/12/12 07:57:05;;;;;;;0.80;0.80;;;;;;;3.86;93.29;97844.31;5035339;28;20056;-79
2023/12/12 07:59:30;;;;;;;0.90;0.90;;;;;;;4.06;93.27;97838.94;5033041;28;20049;-80
2023/12/12 08:01:56;;;;;;;0.90;0.90;;;;;;;4.35;93.18;97838.34;5033723;28;20045;-80
2023/12/12 08:04:21;;;;;;;0.90;0.90;;;;;;;4.55;92.76;97847.06;5035361;28;20060;-79
2023/12/12 08:06:50;;;;;;;0.80;0.80;;;;;;;4.74;92.72;97838.03;5031233;28;20126;-80
2023/12/12 08:09:15;;;;;;;0.90;0.90;;;;;;;4.91;91.86;97840.44;5033421;28;20037;-79
2023/12/12 08:11:41;;;;;;;0.80;0.80;;;;;;;5.00;91.48;97846.06;5037160;28;20045;-79
2023/12/12 08:14:06;;;;;;;0.80;0.80;;;;;;;5.17;90.90;97858.13;5049151;28;20139;-80
2023/12/12 08:16:32;;;;;;;0.90;0.90;;;;;;;5.30;90.40;97852.44;5034104;28;20041;-80
2023/12/12 08:18:57;;;;;;;0.70;0.70;;;;;;;5.62;89.73;97850.03;5032387;28;20025;-80
2023/12/12 08:21:22;;;;;;;0.80;0.80;;;;;;;5.56;87.99;97847.19;5032302;28;20038;-79
2023/12/12 08:23:48;;;;;;;0.77;0.77;;;;;;;5.62;88.35;97839.44;5032439;28;20033;-79
2023/12/12 08:26:15;;;;;;;0.80;0.80;;;;;;;6.00;88.56;97840.75;5032255;28;20036;-80
2023/12/12 08:28:40;;;;;;;0.80;0.80;;;;;;;6.11;87.12;97846.38;5032729;28;20401;-80
2023/12/12 08:31:05;;;;;;;0.70;0.70;;;;;;;6.26;86.35;97841.56;5033618;28;20308;-80
2023/12/12 08:33:33;;;;;;;0.70;0.70;;;;;;;6.29;85.87;97832.84;5029657;28;20067;-80
2023/12/12 08:35:59;;;;;;;0.70;0.70;;;;;;;6.63;84.19;97822.41;5031092;28;20104;-80
2023/12/12 08:38:27;;;;;;;0.70;0.70;;;;;;;6.62;82.98;97809.13;5030440;28;20373;-80
2023/12/12 08:40:54;;;;;;;0.70;0.70;;;;;;;6.51;83.88;97789.31;5035227;28;20115;-81
2023/12/12 08:43:19;;;;;;;0.80;0.80;;;;;;;6.35;84.43;97766.78;5030519;28;20128;-79
2023/12/12 08:45:45;;;;;;;0.80;0.80;;;;;;;6.69;84.07;97763.38;5030425;28;20124;-79
2023/12/12 08:48:10;;;;;;;0.65;0.65;;;;;;;6.69;84.06;97763.38;5031196;28;20640;-80
2023/12/12 08:50:36;;;;;;;0.80;0.80;;;;;;;6.89;82.99;97762.16;5030944;28;20037;-79
2023/12/12 08:53:03;;;;;;;0.75;0.75;;;;;;;7.01;82.34;97751.03;5030560;28;20041;-79
2023/12/12 08:55:28;;;;;;;0.70;0.70;;;;;;;6.97;82.48;97751.78;5026997;28;20041;-78
2023/12/12 08:57:54;;;;;;;0.70;0.70;;;;;;;7.34;81.49;97742.16;5031388;28;20040;-78
2023/12/12 09:00:19;;;;;;;0.70;0.70;;;;;;;7.39;81.35;97745.81;5032318;28;20104;-80
2023/12/12 09:02:45;;;;;;;0.60;0.60;;;;;;;7.37;82.11;97739.56;5032889;28;20037;-79
2023/12/12 09:05:10;;;;;;;0.70;0.70;;;;;;;7.55;82.04;97739.13;5032065;28;20447;-78
2023/12/12 09:07:36;;;;;;;0.70;0.70;;;;;;;7.72;81.73;97735.16;5033850;28;20045;-79
2023/12/12 09:10:05;;;;;;;0.70;0.70;;;;;;;7.78;81.35;97729.97;5034480;28;20752;-78
2023/12/12 09:12:31;;;;;;;0.70;0.70;;;;;;;8.00;80.77;97738.44;5030582;28;20041;-78
2023/12/12 09:14:56;;;;;;;0.70;0.70;;;;;;;8.08;80.49;97728.91;5028970;28;20065;-79
2023/12/12 09:17:22;;;;;;;0.70;0.70;;;;;;;8.06;81.35;97741.25;5029545;28;20040;-78
2023/12/12 09:19:47;;;;;;;0.60;0.60;;;;;;;7.98;81.98;97757.91;5030179;28;20324;-78
2023/12/12 09:22:12;;;;;;;0.70;0.70;;;;;;;7.85;81.97;97766.44;5032386;28;20045;-79
2023/12/12 09:24:38;;;;;;;0.60;0.60;;;;;;;7.86;82.35;97777.97;5031140;28;20076;-79
2023/12/12 09:27:03;;;;;;;0.60;0.60;;;;;;;7.96;82.65;97761.41;5032361;28;20037;-78
2023/12/12 09:29:29;;;;;;;0.60;0.60;;;;;;;7.98;82.57;97743.72;5033841;28;20479;-79
2023/12/12 09:31:56;;;;;;;0.70;0.70;;;;;;;7.96;82.79;97743.69;5033384;28;20045;-78
2023/12/12 09:34:23;;;;;;;0.70;0.70;;;;;;;7.97;82.38;97740.19;5029732;28;20037;-80
2023/12/12 09:36:50;;;;;;;0.70;0.70;;;;;;;7.97;83.57;97734.88;5023561;28;20048;-80
2023/12/12 09:39:15;;;;;;;;;;;;;;;8.14;82.63;97726.38;5030167;28;20091;-80
2023/12/12 09:41:49;;;;;;;0.70;0.70;;;;;;;8.24;82.14;97712.44;5032510;28;20433;-79
2023/12/12 09:44:16;;;;;;;0.70;0.70;;;;;;;8.28;82.15;97703.66;5029568;28;20651;-79
2023/12/12 09:46:43;;;;;;;0.70;0.70;;;;;;;8.44;81.57;97689.00;5031309;28;20058;-79
2023/12/12 09:49:13;;;;;;;;;;;;;;;8.64;80.84;97684.97;5046781;28;20056;-79
2023/12/12 09:51:42;;;;;;;0.60;0.60;;;;;;;8.92;79.64;97690.81;5032248;28;19921;-80
2023/12/12 09:54:11;;;;;;;0.70;0.70;;;;;;;9.00;79.63;97692.72;5030171;28;20029;-80
2023/12/12 09:56:37;;;;;;;0.70;0.70;;;;;;;9.14;79.26;97692.09;5029461;28;20041;-80
2023/12/12 09:59:05;;;;;;;0.70;0.70;;;;;;;9.08;79.57;97679.56;5032053;28;20176;-80
2023/12/12 10:01:34;;;;;;;0.60;0.60;;;;;;;9.27;78.71;97683.47;5046615;28;20124;-79
2023/12/12 10:04:03;;;;;;;0.60;0.60;;;;;;;9.34;78.46;97661.41;5031660;28;20422;-79
2023/12/12 10:06:31;;;;;;;0.70;0.70;;;;;;;9.12;79.48;97670.78;5032042;28;20391;-80
2023/12/12 10:08:57;;;;;;;0.65;0.65;;;;;;;9.41;nan;97665.06;5040205;28;20041;-79
2023/12/12 10:11:23;;;;;;;0.60;0.60;;;;;;;9.40;78.49;97663.28;5031554;28;20474;-81
2023/12/12 10:13:56;;;;;;;0.60;0.60;;;;;;;9.37;79.10;97661.44;5034021;28;20051;-78
2023/12/12 10:16:22;;;;;;;0.60;0.60;;;;;;;9.32;79.43;97667.56;5047707;28;20088;-79
2023/12/12 10:18:47;;;;;;;0.60;0.60;;;;;;;9.25;78.98;97654.16;5037447;28;20156;-79
2023/12/12 10:21:15;;;;;;;0.60;0.60;;;;;;;9.25;79.00;97656.84;5029270;28;20065;-79
2023/12/12 10:23:51;;;;;;;0.60;0.60;;;;;;;9.39;78.75;97654.41;5034379;28;20653;-80
2023/12/12 10:26:25;;;;;;;0.60;0.60;;;;;;;9.34;79.09;97644.53;5047075;28;20144;-79
2023/12/12 10:28:52;;;;;;;0.60;0.60;;;;;;;9.31;78.95;97648.03;5031031;28;20128;-79
2023/12/12 10:31:21;;;;;;;0.60;0.60;;;;;;;9.40;78.45;97644.66;5031473;28;20479;-79
2023/12/12 10:33:47;;;;;;;0.60;0.60;;;;;;;9.42;78.09;97638.47;5030304;28;20292;-79
2023/12/12 10:36:12;;;;;;;0.60;0.60;;;;;;;9.56;77.11;97630.69;5032951;28;20029;-78
2023/12/12 10:38:39;;;;;;;0.60;0.60;;;;;;;9.65;76.62;97619.28;5036073;28;20128;-78
2023/12/12 10:41:15;;;;;;;0.70;0.70;;;;;;;9.79;76.66;97623.03;5016871;28;20199;-79
2023/12/12 10:43:46;;;;;;;0.60;0.60;;;;;;;9.77;76.49;97615.03;5031307;28;20036;-78
2023/12/12 10:46:14;;;;;;;0.60;0.60;;;;;;;9.76;76.84;97607.00;5032568;28;20151;-81
2023/12/12 10:48:47;;;;;;;0.60;0.60;;;;;;;9.79;77.13;97595.53;5031176;28;20037;-80
2023/12/12 10:51:15;;;;;;;0.60;0.60;;;;;;;9.79;77.55;97595.53;5030725;28;20068;-79
2023/12/12 10:53:42;;;;;;;0.60;0.60;;;;;;;9.55;78.47;97599.63;5032660;28;20045;-78
2023/12/12 10:56:08;;;;;;;;;;;;;;;9.31;82.42;97602.81;5030123;28;20056;-78
2023/12/12 10:58:35;;;;;;;0.70;0.70;;;;;;;9.06;83.88;97593.53;5032056;28;20001;-79
2023/12/12 11:01:02;;;;;;;0.60;0.60;;;;;;;8.99;84.37;97608.47;5049541;28;20466;-79
2023/12/12 11:03:29;;;;;;;0.67;0.67;;;;;;;8.98;85.30;97598.72;5033251;28;20123;-79
2023/12/12 11:05:54;;;;;;;0.60;0.60;;;;;;;8.96;86.17;97594.25;5035063;28;20656;-80
2023/12/12 11:08:22;;;;;;;0.60;0.60;;;;;;;8.81;85.83;97589.53;5036812;28;20052;-79
2023/12/12 11:10:50;;;;;;;0.70;0.70;;;;;;;8.78;87.05;97589.50;5034132;28;20410;-79
2023/12/12 11:13:17;;;;;;;0.60;0.60;;;;;;;8.76;87.42;97579.69;5047267;28;20037;-79
2023/12/12 11:15:44;;;;;;;0.63;0.63;;;;;;;8.85;87.04;97570.09;5037279;28;20395;-79
2023/12/12 11:18:12;;;;;;;0.60;0.60;;;;;;;8.96;87.83;97572.97;5034278;28;20075;-79
2023/12/12 11:20:40;;;;;;;0.60;0.60;;;;;;;9.00;88.02;97558.81;5036284;28;20055;-80
2023/12/12 11:23:07;;;;;;;0.60;0.60;;;;;;;8.96;87.93;97560.56;5033602;28;20044;-79
2023/12/12 11:25:34;;;;;;;0.68;0.68;;;;;;;9.06;87.19;97548.31;5033721;28;20130;-79
2023/12/12 11:28:01;;;;;;;;;;;;;;;9.16;86.97;97547.56;5033112;28;20072;-82
2023/12/12 11:30:37;;;;;;;;;;;;;;;9.25;86.87;97542.38;5037156;28;19992;-81
2023/12/12 11:33:05;;;;;;;0.60;0.60;;;;;;;9.05;87.56;97540.28;5033764;28;19928;-79
2023/12/12 11:35:31;;;;;;;0.70;0.70;;;;;;;8.97;87.81;97543.72;5033235;28;20057;-79
2023/12/12 11:38:05;;;;;;;0.70;0.70;;;;;;;9.03;87.86;97548.22;5033764;28;20562;-79